sensor_id;sensor_type;location;lat;lon;timestamp;P1;durP1;ratioP1;P2;durP2;ratioP2
5333;SDS011;2689;50.954;7.116;2023-07-31T00:02:00;9.00;;;3.93;;
5333;SDS011;2689;50.954;7.116;2023-07-31T00:04:29;10.40;;;3.20;;
5333;SDS011;2689;50.954;7.116;2023-07-31T00:06:55;8.27;;;3.83;;
5333;SDS011;2689;50.954;7.116;2023-07-31T00:09:22;7.30;;;3.87;;
5333;SDS011;2689;50.954;7.116;2023-07-31T00:11:49;7.13;;;3.80;;
5333;SDS011;2689;50.954;7.116;2023-07-31T00:14:16;6.60;;;3.47;;
5333;SDS011;2689;50.954;7.116;2023-07-31T00:16:42;11.30;;;3.30;;
5333;SDS011;2689;50.954;7.116;2023-07-31T00:19:09;7.63;;;3.07;;
5333;SDS011;2689;50.954;7.116;2023-07-31T00:21:37;9.20;;;3.70;;
5333;SDS011;2689;50.954;7.116;2023-07-31T00:24:05;6.90;;;3.10;;
5333;SDS011;2689;50.954;7.116;2023-07-31T00:26:32;6.20;;;3.90;;
5333;SDS011;2689;50.954;7.116;2023-07-31T00:28:59;8.27;;;4.00;;
5333;SDS011;2689;50.954;7.116;2023-07-31T00:31:25;7.40;;;3.83;;
5333;SDS011;2689;50.954;7.116;2023-07-31T00:33:52;6.50;;;3.63;;
5333;SDS011;2689;50.954;7.116;2023-07-31T00:36:19;9.17;;;4.03;;
5333;SDS011;2689;50.954;7.116;2023-07-31T00:38:47;7.90;;;3.40;;
5333;SDS011;2689;50.954;7.116;2023-07-31T00:41:14;7.33;;;3.50;;
5333;SDS011;2689;50.954;7.116;2023-07-31T00:43:40;9.80;;;4.47;;
5333;SDS011;2689;50.954;7.116;2023-07-31T00:46:07;8.20;;;3.67;;
5333;SDS011;2689;50.954;7.116;2023-07-31T00:48:34;11.87;;;3.33;;
5333;SDS011;2689;50.954;7.116;2023-07-31T00:51:02;10.17;;;3.63;;
5333;SDS011;2689;50.954;7.116;2023-07-31T00:53:28;7.47;;;4.03;;
5333;SDS011;2689;50.954;7.116;2023-07-31T00:55:57;14.47;;;2.70;;
5333;SDS011;2689;50.954;7.116;2023-07-31T00:58:24;8.00;;;3.53;;
5333;SDS011;2689;50.954;7.116;2023-07-31T01:00:53;6.90;;;3.87;;
5333;SDS011;2689;50.954;7.116;2023-07-31T01:03:19;8.33;;;3.40;;
5333;SDS011;2689;50.954;7.116;2023-07-31T01:05:49;10.70;;;3.40;;
5333;SDS011;2689;50.954;7.116;2023-07-31T01:08:29;15.60;;;3.70;;
5333;SDS011;2689;50.954;7.116;2023-07-31T01:11:03;7.43;;;3.33;;
5333;SDS011;2689;50.954;7.116;2023-07-31T01:13:36;8.43;;;2.63;;
5333;SDS011;2689;50.954;7.116;2023-07-31T01:16:03;5.43;;;3.73;;
5333;SDS011;2689;50.954;7.116;2023-07-31T01:18:30;3.87;;;2.77;;
5333;SDS011;2689;50.954;7.116;2023-07-31T01:20:59;6.03;;;2.90;;
5333;SDS011;2689;50.954;7.116;2023-07-31T01:23:41;6.37;;;2.77;;
5333;SDS011;2689;50.954;7.116;2023-07-31T01:26:19;7.63;;;3.20;;
5333;SDS011;2689;50.954;7.116;2023-07-31T01:28:50;4.60;;;2.70;;
5333;SDS011;2689;50.954;7.116;2023-07-31T01:31:23;5.97;;;2.50;;
5333;SDS011;2689;50.954;7.116;2023-07-31T01:33:51;12.00;;;3.50;;
5333;SDS011;2689;50.954;7.116;2023-07-31T01:36:19;5.87;;;2.80;;
5333;SDS011;2689;50.954;7.116;2023-07-31T01:38:46;7.50;;;3.13;;
5333;SDS011;2689;50.954;7.116;2023-07-31T01:41:13;6.67;;;3.43;;
5333;SDS011;2689;50.954;7.116;2023-07-31T01:43:43;9.80;;;3.27;;
5333;SDS011;2689;50.954;7.116;2023-07-31T01:46:10;9.53;;;3.50;;
5333;SDS011;2689;50.954;7.116;2023-07-31T01:48:37;6.83;;;2.77;;
5333;SDS011;2689;50.954;7.116;2023-07-31T01:51:04;5.03;;;3.17;;
5333;SDS011;2689;50.954;7.116;2023-07-31T01:53:31;5.73;;;3.33;;
5333;SDS011;2689;50.954;7.116;2023-07-31T01:55:57;6.90;;;3.30;;
5333;SDS011;2689;50.954;7.116;2023-07-31T01:58:24;6.97;;;3.17;;
5333;SDS011;2689;50.954;7.116;2023-07-31T02:00:52;5.13;;;2.77;;
5333;SDS011;2689;50.954;7.116;2023-07-31T02:03:19;6.57;;;2.73;;
5333;SDS011;2689;50.954;7.116;2023-07-31T02:05:46;8.13;;;4.00;;
5333;SDS011;2689;50.954;7.116;2023-07-31T02:08:15;5.60;;;2.50;;
5333;SDS011;2689;50.954;7.116;2023-07-31T02:10:42;5.90;;;3.10;;
5333;SDS011;2689;50.954;7.116;2023-07-31T02:13:09;6.37;;;2.90;;
5333;SDS011;2689;50.954;7.116;2023-07-31T02:15:36;7.87;;;3.40;;
5333;SDS011;2689;50.954;7.116;2023-07-31T02:18:04;7.70;;;3.13;;
5333;SDS011;2689;50.954;7.116;2023-07-31T02:20:33;5.17;;;3.10;;
5333;SDS011;2689;50.954;7.116;2023-07-31T02:23:00;5.83;;;3.03;;
5333;SDS011;2689;50.954;7.116;2023-07-31T02:25:26;10.87;;;3.23;;
5333;SDS011;2689;50.954;7.116;2023-07-31T02:27:53;6.20;;;3.07;;
5333;SDS011;2689;50.954;7.116;2023-07-31T02:30:20;6.97;;;2.90;;
5333;SDS011;2689;50.954;7.116;2023-07-31T02:32:47;7.57;;;3.00;;
5333;SDS011;2689;50.954;7.116;2023-07-31T02:35:15;10.87;;;3.80;;
5333;SDS011;2689;50.954;7.116;2023-07-31T02:37:43;6.00;;;3.13;;
5333;SDS011;2689;50.954;7.116;2023-07-31T02:40:10;8.47;;;3.40;;
5333;SDS011;2689;50.954;7.116;2023-07-31T02:42:37;5.23;;;3.30;;
5333;SDS011;2689;50.954;7.116;2023-07-31T02:45:05;5.50;;;2.90;;
5333;SDS011;2689;50.954;7.116;2023-07-31T02:47:32;7.63;;;3.33;;
5333;SDS011;2689;50.954;7.116;2023-07-31T02:49:59;5.70;;;3.57;;
5333;SDS011;2689;50.954;7.116;2023-07-31T02:52:27;5.40;;;3.40;;
5333;SDS011;2689;50.954;7.116;2023-07-31T02:54:54;6.00;;;3.10;;
5333;SDS011;2689;50.954;7.116;2023-07-31T02:57:21;5.50;;;3.37;;
5333;SDS011;2689;50.954;7.116;2023-07-31T02:59:47;6.97;;;3.30;;
5333;SDS011;2689;50.954;7.116;2023-07-31T03:02:14;6.00;;;3.00;;
5333;SDS011;2689;50.954;7.116;2023-07-31T03:04:41;9.47;;;4.30;;
5333;SDS011;2689;50.954;7.116;2023-07-31T03:07:08;12.73;;;3.80;;
5333;SDS011;2689;50.954;7.116;2023-07-31T03:09:36;10.00;;;3.10;;
5333;SDS011;2689;50.954;7.116;2023-07-31T03:12:03;9.93;;;4.00;;
5333;SDS011;2689;50.954;7.116;2023-07-31T03:14:30;5.73;;;2.80;;
5333;SDS011;2689;50.954;7.116;2023-07-31T03:16:56;9.20;;;3.37;;
5333;SDS011;2689;50.954;7.116;2023-07-31T03:19:23;9.90;;;3.40;;
5333;SDS011;2689;50.954;7.116;2023-07-31T03:21:50;7.03;;;3.43;;
5333;SDS011;2689;50.954;7.116;2023-07-31T03:24:17;11.67;;;3.57;;
5333;SDS011;2689;50.954;7.116;2023-07-31T03:26:45;8.43;;;3.67;;
5333;SDS011;2689;50.954;7.116;2023-07-31T03:29:11;6.10;;;3.70;;
5333;SDS011;2689;50.954;7.116;2023-07-31T03:31:38;7.97;;;4.40;;
5333;SDS011;2689;50.954;7.116;2023-07-31T03:34:05;7.57;;;3.83;;
5333;SDS011;2689;50.954;7.116;2023-07-31T03:36:32;6.40;;;2.90;;
5333;SDS011;2689;50.954;7.116;2023-07-31T03:38:59;8.10;;;3.80;;
5333;SDS011;2689;50.954;7.116;2023-07-31T03:41:25;11.17;;;3.70;;
5333;SDS011;2689;50.954;7.116;2023-07-31T03:43:53;7.90;;;2.77;;
5333;SDS011;2689;50.954;7.116;2023-07-31T03:46:21;8.53;;;3.93;;
5333;SDS011;2689;50.954;7.116;2023-07-31T03:48:48;9.10;;;3.30;;
5333;SDS011;2689;50.954;7.116;2023-07-31T03:51:14;10.40;;;3.87;;
5333;SDS011;2689;50.954;7.116;2023-07-31T03:53:41;4.50;;;3.30;;
5333;SDS011;2689;50.954;7.116;2023-07-31T03:56:08;6.67;;;3.60;;
5333;SDS011;2689;50.954;7.116;2023-07-31T03:58:35;7.73;;;3.50;;
5333;SDS011;2689;50.954;7.116;2023-07-31T04:01:03;10.80;;;3.90;;
5333;SDS011;2689;50.954;7.116;2023-07-31T04:03:30;12.60;;;4.23;;
5333;SDS011;2689;50.954;7.116;2023-07-31T04:05:57;6.93;;;3.23;;
5333;SDS011;2689;50.954;7.116;2023-07-31T04:08:23;6.40;;;3.40;;
5333;SDS011;2689;50.954;7.116;2023-07-31T04:10:50;4.83;;;3.40;;
5333;SDS011;2689;50.954;7.116;2023-07-31T04:13:17;6.37;;;2.73;;
5333;SDS011;2689;50.954;7.116;2023-07-31T04:15:47;8.27;;;3.37;;
5333;SDS011;2689;50.954;7.116;2023-07-31T04:18:16;9.40;;;3.67;;
5333;SDS011;2689;50.954;7.116;2023-07-31T04:20:43;10.00;;;4.17;;
5333;SDS011;2689;50.954;7.116;2023-07-31T04:23:10;9.17;;;4.07;;
5333;SDS011;2689;50.954;7.116;2023-07-31T04:25:37;9.70;;;4.47;;
5333;SDS011;2689;50.954;7.116;2023-07-31T04:28:04;6.17;;;4.00;;
5333;SDS011;2689;50.954;7.116;2023-07-31T04:30:30;8.10;;;3.80;;
5333;SDS011;2689;50.954;7.116;2023-07-31T04:32:57;7.27;;;3.90;;
5333;SDS011;2689;50.954;7.116;2023-07-31T04:35:26;11.10;;;4.37;;
5333;SDS011;2689;50.954;7.116;2023-07-31T04:37:53;7.30;;;3.97;;
5333;SDS011;2689;50.954;7.116;2023-07-31T04:40:19;8.13;;;4.30;;
5333;SDS011;2689;50.954;7.116;2023-07-31T04:42:46;7.07;;;3.90;;
5333;SDS011;2689;50.954;7.116;2023-07-31T04:45:13;7.67;;;4.17;;
5333;SDS011;2689;50.954;7.116;2023-07-31T04:47:40;9.67;;;4.40;;
5333;SDS011;2689;50.954;7.116;2023-07-31T04:50:07;8.27;;;3.90;;
5333;SDS011;2689;50.954;7.116;2023-07-31T04:52:35;10.93;;;4.67;;
5333;SDS011;2689;50.954;7.116;2023-07-31T04:55:02;11.43;;;4.37;;
5333;SDS011;2689;50.954;7.116;2023-07-31T04:57:29;7.97;;;4.27;;
5333;SDS011;2689;50.954;7.116;2023-07-31T04:59:56;11.53;;;4.53;;
5333;SDS011;2689;50.954;7.116;2023-07-31T05:02:23;7.90;;;3.67;;
5333;SDS011;2689;50.954;7.116;2023-07-31T05:04:50;11.40;;;4.50;;
5333;SDS011;2689;50.954;7.116;2023-07-31T05:07:17;7.33;;;3.80;;
5333;SDS011;2689;50.954;7.116;2023-07-31T05:09:45;9.83;;;4.20;;
5333;SDS011;2689;50.954;7.116;2023-07-31T05:12:12;5.60;;;3.47;;
5333;SDS011;2689;50.954;7.116;2023-07-31T05:14:39;7.53;;;4.73;;
5333;SDS011;2689;50.954;7.116;2023-07-31T05:17:05;9.07;;;4.70;;
5333;SDS011;2689;50.954;7.116;2023-07-31T05:19:32;5.43;;;3.50;;
5333;SDS011;2689;50.954;7.116;2023-07-31T05:21:59;6.37;;;3.67;;
5333;SDS011;2689;50.954;7.116;2023-07-31T05:24:26;5.03;;;3.33;;
5333;SDS011;2689;50.954;7.116;2023-07-31T05:26:54;10.17;;;3.63;;
5333;SDS011;2689;50.954;7.116;2023-07-31T05:29:21;6.00;;;3.20;;
5333;SDS011;2689;50.954;7.116;2023-07-31T05:31:47;5.70;;;3.63;;
5333;SDS011;2689;50.954;7.116;2023-07-31T05:34:14;10.37;;;3.70;;
5333;SDS011;2689;50.954;7.116;2023-07-31T05:36:40;6.97;;;4.10;;
5333;SDS011;2689;50.954;7.116;2023-07-31T05:39:07;7.47;;;3.60;;
5333;SDS011;2689;50.954;7.116;2023-07-31T05:41:35;6.97;;;3.63;;
5333;SDS011;2689;50.954;7.116;2023-07-31T05:44:03;8.53;;;3.60;;
5333;SDS011;2689;50.954;7.116;2023-07-31T05:46:30;8.30;;;3.53;;
5333;SDS011;2689;50.954;7.116;2023-07-31T05:48:57;7.37;;;3.13;;
5333;SDS011;2689;50.954;7.116;2023-07-31T05:51:25;7.60;;;3.73;;
5333;SDS011;2689;50.954;7.116;2023-07-31T05:53:52;4.50;;;3.40;;
5333;SDS011;2689;50.954;7.116;2023-07-31T05:56:19;6.37;;;3.30;;
5333;SDS011;2689;50.954;7.116;2023-07-31T05:58:46;6.60;;;3.80;;
5333;SDS011;2689;50.954;7.116;2023-07-31T06:01:16;7.83;;;3.70;;
5333;SDS011;2689;50.954;7.116;2023-07-31T06:03:43;5.10;;;3.23;;
5333;SDS011;2689;50.954;7.116;2023-07-31T06:06:10;6.23;;;3.47;;
5333;SDS011;2689;50.954;7.116;2023-07-31T06:08:38;5.10;;;3.30;;
5333;SDS011;2689;50.954;7.116;2023-07-31T06:11:06;7.47;;;3.23;;
5333;SDS011;2689;50.954;7.116;2023-07-31T06:13:34;4.07;;;3.10;;
5333;SDS011;2689;50.954;7.116;2023-07-31T06:16:03;7.43;;;4.17;;
5333;SDS011;2689;50.954;7.116;2023-07-31T06:18:32;11.50;;;4.17;;
5333;SDS011;2689;50.954;7.116;2023-07-31T06:20:59;8.50;;;3.77;;
5333;SDS011;2689;50.954;7.116;2023-07-31T06:23:26;7.97;;;3.97;;
5333;SDS011;2689;50.954;7.116;2023-07-31T06:25:53;8.33;;;4.00;;
5333;SDS011;2689;50.954;7.116;2023-07-31T06:28:19;5.50;;;3.10;;
5333;SDS011;2689;50.954;7.116;2023-07-31T06:30:46;8.97;;;4.43;;
5333;SDS011;2689;50.954;7.116;2023-07-31T06:33:13;7.37;;;3.70;;
5333;SDS011;2689;50.954;7.116;2023-07-31T06:35:41;7.13;;;4.50;;
5333;SDS011;2689;50.954;7.116;2023-07-31T06:38:08;5.50;;;3.90;;
5333;SDS011;2689;50.954;7.116;2023-07-31T06:40:35;11.13;;;4.40;;
5333;SDS011;2689;50.954;7.116;2023-07-31T06:43:02;8.17;;;4.33;;
5333;SDS011;2689;50.954;7.116;2023-07-31T06:45:38;6.67;;;3.80;;
5333;SDS011;2689;50.954;7.116;2023-07-31T06:48:10;12.50;;;5.33;;
5333;SDS011;2689;50.954;7.116;2023-07-31T06:50:40;7.67;;;4.83;;
5333;SDS011;2689;50.954;7.116;2023-07-31T06:53:08;9.73;;;4.50;;
5333;SDS011;2689;50.954;7.116;2023-07-31T06:55:35;11.10;;;4.73;;
5333;SDS011;2689;50.954;7.116;2023-07-31T06:58:02;6.33;;;3.70;;
5333;SDS011;2689;50.954;7.116;2023-07-31T07:00:29;6.97;;;4.20;;
5333;SDS011;2689;50.954;7.116;2023-07-31T07:02:56;6.60;;;3.43;;
5333;SDS011;2689;50.954;7.116;2023-07-31T07:05:22;5.53;;;3.80;;
5333;SDS011;2689;50.954;7.116;2023-07-31T07:07:51;6.70;;;3.80;;
5333;SDS011;2689;50.954;7.116;2023-07-31T07:10:17;5.10;;;4.27;;
5333;SDS011;2689;50.954;7.116;2023-07-31T07:12:44;7.53;;;3.60;;
5333;SDS011;2689;50.954;7.116;2023-07-31T07:15:11;9.93;;;3.40;;
5333;SDS011;2689;50.954;7.116;2023-07-31T07:17:38;7.70;;;3.70;;
5333;SDS011;2689;50.954;7.116;2023-07-31T07:20:13;8.07;;;4.10;;
5333;SDS011;2689;50.954;7.116;2023-07-31T07:22:41;5.93;;;3.67;;
5333;SDS011;2689;50.954;7.116;2023-07-31T07:25:11;6.80;;;4.33;;
5333;SDS011;2689;50.954;7.116;2023-07-31T07:27:37;7.20;;;3.90;;
5333;SDS011;2689;50.954;7.116;2023-07-31T07:30:05;5.73;;;3.47;;
5333;SDS011;2689;50.954;7.116;2023-07-31T07:32:32;8.17;;;4.30;;
5333;SDS011;2689;50.954;7.116;2023-07-31T07:34:59;5.93;;;3.70;;
5333;SDS011;2689;50.954;7.116;2023-07-31T07:37:26;6.17;;;3.57;;
5333;SDS011;2689;50.954;7.116;2023-07-31T07:39:53;5.17;;;3.47;;
5333;SDS011;2689;50.954;7.116;2023-07-31T07:42:23;9.20;;;4.23;;
5333;SDS011;2689;50.954;7.116;2023-07-31T07:44:50;12.80;;;3.93;;
5333;SDS011;2689;50.954;7.116;2023-07-31T07:47:17;6.00;;;3.30;;
5333;SDS011;2689;50.954;7.116;2023-07-31T07:49:44;6.40;;;3.80;;
5333;SDS011;2689;50.954;7.116;2023-07-31T07:52:10;9.73;;;4.70;;
5333;SDS011;2689;50.954;7.116;2023-07-31T07:54:37;8.40;;;4.33;;
5333;SDS011;2689;50.954;7.116;2023-07-31T07:57:04;10.63;;;4.93;;
5333;SDS011;2689;50.954;7.116;2023-07-31T07:59:32;5.97;;;4.03;;
5333;SDS011;2689;50.954;7.116;2023-07-31T08:01:59;6.60;;;4.17;;
5333;SDS011;2689;50.954;7.116;2023-07-31T08:04:26;7.63;;;3.63;;
5333;SDS011;2689;50.954;7.116;2023-07-31T08:06:54;8.80;;;3.97;;
5333;SDS011;2689;50.954;7.116;2023-07-31T08:09:20;9.93;;;5.40;;
5333;SDS011;2689;50.954;7.116;2023-07-31T08:11:48;7.40;;;3.90;;
5333;SDS011;2689;50.954;7.116;2023-07-31T08:14:15;7.43;;;4.37;;
5333;SDS011;2689;50.954;7.116;2023-07-31T08:16:44;8.07;;;4.00;;
5333;SDS011;2689;50.954;7.116;2023-07-31T08:19:11;7.77;;;4.03;;
5333;SDS011;2689;50.954;7.116;2023-07-31T08:21:37;7.27;;;4.10;;
5333;SDS011;2689;50.954;7.116;2023-07-31T08:24:04;9.80;;;4.77;;
5333;SDS011;2689;50.954;7.116;2023-07-31T08:26:32;8.27;;;4.40;;
5333;SDS011;2689;50.954;7.116;2023-07-31T08:28:59;9.00;;;4.03;;
5333;SDS011;2689;50.954;7.116;2023-07-31T08:31:29;7.17;;;3.40;;
5333;SDS011;2689;50.954;7.116;2023-07-31T08:33:57;7.40;;;4.17;;
5333;SDS011;2689;50.954;7.116;2023-07-31T08:36:24;10.80;;;4.20;;
5333;SDS011;2689;50.954;7.116;2023-07-31T08:38:51;8.60;;;3.70;;
5333;SDS011;2689;50.954;7.116;2023-07-31T08:41:18;6.83;;;3.50;;
5333;SDS011;2689;50.954;7.116;2023-07-31T08:43:45;6.53;;;4.07;;
5333;SDS011;2689;50.954;7.116;2023-07-31T08:46:12;6.93;;;3.83;;
5333;SDS011;2689;50.954;7.116;2023-07-31T08:48:40;6.37;;;3.77;;
5333;SDS011;2689;50.954;7.116;2023-07-31T08:51:10;5.47;;;3.30;;
5333;SDS011;2689;50.954;7.116;2023-07-31T08:53:37;5.87;;;3.53;;
5333;SDS011;2689;50.954;7.116;2023-07-31T08:56:04;7.97;;;3.60;;
5333;SDS011;2689;50.954;7.116;2023-07-31T08:58:32;5.50;;;4.00;;
5333;SDS011;2689;50.954;7.116;2023-07-31T09:01:01;6.23;;;3.87;;
5333;SDS011;2689;50.954;7.116;2023-07-31T09:03:33;9.70;;;4.00;;
5333;SDS011;2689;50.954;7.116;2023-07-31T09:06:01;7.27;;;3.83;;
5333;SDS011;2689;50.954;7.116;2023-07-31T09:08:33;7.23;;;4.07;;
5333;SDS011;2689;50.954;7.116;2023-07-31T09:11:02;4.30;;;3.07;;
5333;SDS011;2689;50.954;7.116;2023-07-31T09:13:30;6.47;;;3.63;;
5333;SDS011;2689;50.954;7.116;2023-07-31T09:15:58;10.03;;;4.07;;
5333;SDS011;2689;50.954;7.116;2023-07-31T09:18:25;6.30;;;3.27;;
5333;SDS011;2689;50.954;7.116;2023-07-31T09:21:01;4.50;;;3.47;;
5333;SDS011;2689;50.954;7.116;2023-07-31T09:23:41;6.80;;;3.80;;
5333;SDS011;2689;50.954;7.116;2023-07-31T09:26:08;9.83;;;4.17;;
5333;SDS011;2689;50.954;7.116;2023-07-31T09:28:35;9.47;;;4.67;;
5333;SDS011;2689;50.954;7.116;2023-07-31T09:31:02;8.13;;;3.87;;
5333;SDS011;2689;50.954;7.116;2023-07-31T09:33:29;11.43;;;4.13;;
5333;SDS011;2689;50.954;7.116;2023-07-31T09:35:58;6.40;;;2.87;;
5333;SDS011;2689;50.954;7.116;2023-07-31T09:38:26;6.70;;;3.23;;
5333;SDS011;2689;50.954;7.116;2023-07-31T09:40:54;5.33;;;3.00;;
5333;SDS011;2689;50.954;7.116;2023-07-31T09:43:25;9.07;;;3.53;;
5333;SDS011;2689;50.954;7.116;2023-07-31T09:45:54;5.73;;;4.03;;
5333;SDS011;2689;50.954;7.116;2023-07-31T09:48:23;7.33;;;3.30;;
5333;SDS011;2689;50.954;7.116;2023-07-31T09:50:53;4.83;;;2.87;;
5333;SDS011;2689;50.954;7.116;2023-07-31T09:53:31;6.10;;;3.83;;
5333;SDS011;2689;50.954;7.116;2023-07-31T09:56:03;7.70;;;3.27;;
5333;SDS011;2689;50.954;7.116;2023-07-31T09:58:43;5.93;;;3.07;;
5333;SDS011;2689;50.954;7.116;2023-07-31T10:01:27;8.83;;;4.00;;
5333;SDS011;2689;50.954;7.116;2023-07-31T10:04:57;6.97;;;3.63;;
5333;SDS011;2689;50.954;7.116;2023-07-31T10:07:50;5.00;;;3.23;;
5333;SDS011;2689;50.954;7.116;2023-07-31T10:10:20;12.07;;;7.87;;
5333;SDS011;2689;50.954;7.116;2023-07-31T10:12:51;5.57;;;3.40;;
5333;SDS011;2689;50.954;7.116;2023-07-31T10:15:22;8.27;;;3.40;;
5333;SDS011;2689;50.954;7.116;2023-07-31T10:18:08;5.10;;;3.60;;
5333;SDS011;2689;50.954;7.116;2023-07-31T10:20:36;7.33;;;3.80;;
5333;SDS011;2689;50.954;7.116;2023-07-31T10:23:06;4.83;;;3.50;;
5333;SDS011;2689;50.954;7.116;2023-07-31T10:25:36;9.60;;;2.97;;
5333;SDS011;2689;50.954;7.116;2023-07-31T10:28:05;7.17;;;3.40;;
5333;SDS011;2689;50.954;7.116;2023-07-31T10:30:37;4.50;;;3.17;;
5333;SDS011;2689;50.954;7.116;2023-07-31T10:33:14;7.17;;;3.80;;
5333;SDS011;2689;50.954;7.116;2023-07-31T10:35:42;6.37;;;3.30;;
5333;SDS011;2689;50.954;7.116;2023-07-31T10:38:09;6.00;;;3.40;;
5333;SDS011;2689;50.954;7.116;2023-07-31T10:40:37;4.47;;;3.40;;
5333;SDS011;2689;50.954;7.116;2023-07-31T10:43:07;6.80;;;3.00;;
5333;SDS011;2689;50.954;7.116;2023-07-31T10:45:36;5.83;;;3.07;;
5333;SDS011;2689;50.954;7.116;2023-07-31T10:48:05;5.80;;;4.20;;
5333;SDS011;2689;50.954;7.116;2023-07-31T10:50:33;7.00;;;3.47;;
5333;SDS011;2689;50.954;7.116;2023-07-31T10:53:04;8.17;;;4.20;;
5333;SDS011;2689;50.954;7.116;2023-07-31T10:55:48;5.90;;;3.30;;
5333;SDS011;2689;50.954;7.116;2023-07-31T10:58:18;6.17;;;3.20;;
5333;SDS011;2689;50.954;7.116;2023-07-31T11:00:46;5.10;;;3.33;;
5333;SDS011;2689;50.954;7.116;2023-07-31T11:03:14;6.20;;;3.30;;
5333;SDS011;2689;50.954;7.116;2023-07-31T11:05:42;4.93;;;3.03;;
5333;SDS011;2689;50.954;7.116;2023-07-31T11:08:13;6.10;;;3.47;;
5333;SDS011;2689;50.954;7.116;2023-07-31T11:10:41;7.30;;;3.50;;
5333;SDS011;2689;50.954;7.116;2023-07-31T11:13:09;9.27;;;3.53;;
5333;SDS011;2689;50.954;7.116;2023-07-31T11:15:37;5.03;;;3.00;;
5333;SDS011;2689;50.954;7.116;2023-07-31T11:18:05;8.20;;;3.60;;
5333;SDS011;2689;50.954;7.116;2023-07-31T11:20:33;8.60;;;3.40;;
5333;SDS011;2689;50.954;7.116;2023-07-31T11:23:03;3.20;;;2.70;;
5333;SDS011;2689;50.954;7.116;2023-07-31T11:25:33;8.93;;;5.13;;
5333;SDS011;2689;50.954;7.116;2023-07-31T11:28:02;7.93;;;2.40;;
5333;SDS011;2689;50.954;7.116;2023-07-31T11:30:44;5.17;;;2.47;;
5333;SDS011;2689;50.954;7.116;2023-07-31T11:33:15;6.57;;;3.13;;
5333;SDS011;2689;50.954;7.116;2023-07-31T11:35:43;4.10;;;2.37;;
5333;SDS011;2689;50.954;7.116;2023-07-31T11:38:11;8.10;;;1.73;;
5333;SDS011;2689;50.954;7.116;2023-07-31T11:40:41;3.40;;;1.80;;
5333;SDS011;2689;50.954;7.116;2023-07-31T11:43:08;5.40;;;1.57;;
5333;SDS011;2689;50.954;7.116;2023-07-31T11:45:36;2.60;;;1.63;;
5333;SDS011;2689;50.954;7.116;2023-07-31T11:48:11;2.83;;;1.60;;
5333;SDS011;2689;50.954;7.116;2023-07-31T11:50:47;2.20;;;1.37;;
5333;SDS011;2689;50.954;7.116;2023-07-31T11:53:15;2.10;;;1.23;;
5333;SDS011;2689;50.954;7.116;2023-07-31T11:55:51;2.43;;;1.30;;
5333;SDS011;2689;50.954;7.116;2023-07-31T11:58:36;2.43;;;1.57;;
5333;SDS011;2689;50.954;7.116;2023-07-31T12:01:11;2.90;;;1.37;;
5333;SDS011;2689;50.954;7.116;2023-07-31T12:03:42;2.43;;;1.20;;
5333;SDS011;2689;50.954;7.116;2023-07-31T12:06:16;2.97;;;1.40;;
5333;SDS011;2689;50.954;7.116;2023-07-31T12:08:45;2.47;;;1.50;;
5333;SDS011;2689;50.954;7.116;2023-07-31T12:11:12;2.20;;;1.53;;
5333;SDS011;2689;50.954;7.116;2023-07-31T12:13:40;3.10;;;1.60;;
5333;SDS011;2689;50.954;7.116;2023-07-31T12:16:16;3.40;;;1.27;;
5333;SDS011;2689;50.954;7.116;2023-07-31T12:18:45;1.93;;;1.27;;
5333;SDS011;2689;50.954;7.116;2023-07-31T12:21:15;2.37;;;1.17;;
5333;SDS011;2689;50.954;7.116;2023-07-31T12:23:43;1.60;;;1.20;;
5333;SDS011;2689;50.954;7.116;2023-07-31T12:26:11;2.47;;;1.20;;
5333;SDS011;2689;50.954;7.116;2023-07-31T12:28:40;3.87;;;1.60;;
5333;SDS011;2689;50.954;7.116;2023-07-31T12:31:08;1.60;;;0.90;;
5333;SDS011;2689;50.954;7.116;2023-07-31T12:33:37;2.20;;;1.40;;
5333;SDS011;2689;50.954;7.116;2023-07-31T12:36:07;2.17;;;1.30;;
5333;SDS011;2689;50.954;7.116;2023-07-31T12:38:35;2.10;;;1.10;;
5333;SDS011;2689;50.954;7.116;2023-07-31T12:41:02;1.87;;;1.20;;
5333;SDS011;2689;50.954;7.116;2023-07-31T12:43:29;1.87;;;1.20;;
5333;SDS011;2689;50.954;7.116;2023-07-31T12:45:56;3.00;;;0.97;;
5333;SDS011;2689;50.954;7.116;2023-07-31T12:48:22;1.80;;;0.97;;
5333;SDS011;2689;50.954;7.116;2023-07-31T12:50:49;2.27;;;1.20;;
5333;SDS011;2689;50.954;7.116;2023-07-31T12:53:17;1.60;;;0.90;;
5333;SDS011;2689;50.954;7.116;2023-07-31T12:55:44;2.17;;;1.63;;
5333;SDS011;2689;50.954;7.116;2023-07-31T12:58:11;1.50;;;1.30;;
5333;SDS011;2689;50.954;7.116;2023-07-31T13:00:38;2.43;;;1.40;;
5333;SDS011;2689;50.954;7.116;2023-07-31T13:03:05;2.60;;;1.70;;
5333;SDS011;2689;50.954;7.116;2023-07-31T13:05:32;4.27;;;2.13;;
5333;SDS011;2689;50.954;7.116;2023-07-31T13:07:58;3.50;;;1.60;;
5333;SDS011;2689;50.954;7.116;2023-07-31T13:10:27;2.70;;;1.93;;
5333;SDS011;2689;50.954;7.116;2023-07-31T13:12:54;3.10;;;2.07;;
5333;SDS011;2689;50.954;7.116;2023-07-31T13:15:21;3.23;;;1.60;;
5333;SDS011;2689;50.954;7.116;2023-07-31T13:17:48;2.83;;;2.17;;
5333;SDS011;2689;50.954;7.116;2023-07-31T13:20:15;4.00;;;2.10;;
5333;SDS011;2689;50.954;7.116;2023-07-31T13:22:42;3.20;;;2.20;;
5333;SDS011;2689;50.954;7.116;2023-07-31T13:25:08;4.33;;;2.33;;
5333;SDS011;2689;50.954;7.116;2023-07-31T13:27:43;4.03;;;2.30;;
5333;SDS011;2689;50.954;7.116;2023-07-31T13:30:09;5.47;;;2.63;;
5333;SDS011;2689;50.954;7.116;2023-07-31T13:32:36;4.27;;;2.30;;
5333;SDS011;2689;50.954;7.116;2023-07-31T13:35:04;3.10;;;2.37;;
5333;SDS011;2689;50.954;7.116;2023-07-31T13:37:31;3.00;;;2.40;;
5333;SDS011;2689;50.954;7.116;2023-07-31T13:39:58;3.43;;;2.70;;
5333;SDS011;2689;50.954;7.116;2023-07-31T13:42:25;3.13;;;2.40;;
5333;SDS011;2689;50.954;7.116;2023-07-31T13:44:56;2.70;;;2.30;;
5333;SDS011;2689;50.954;7.116;2023-07-31T13:47:23;4.57;;;2.97;;
5333;SDS011;2689;50.954;7.116;2023-07-31T13:49:50;3.43;;;2.60;;
5333;SDS011;2689;50.954;7.116;2023-07-31T13:52:17;4.37;;;2.73;;
5333;SDS011;2689;50.954;7.116;2023-07-31T13:54:43;12.73;;;2.77;;
5333;SDS011;2689;50.954;7.116;2023-07-31T13:57:10;4.00;;;2.80;;
5333;SDS011;2689;50.954;7.116;2023-07-31T13:59:37;5.40;;;3.63;;
5333;SDS011;2689;50.954;7.116;2023-07-31T14:02:05;3.80;;;2.93;;
5333;SDS011;2689;50.954;7.116;2023-07-31T14:04:32;5.43;;;2.60;;
5333;SDS011;2689;50.954;7.116;2023-07-31T14:06:59;6.20;;;2.57;;
5333;SDS011;2689;50.954;7.116;2023-07-31T14:09:26;3.57;;;2.40;;
5333;SDS011;2689;50.954;7.116;2023-07-31T14:11:53;3.00;;;2.37;;
5333;SDS011;2689;50.954;7.116;2023-07-31T14:14:20;2.63;;;2.10;;
5333;SDS011;2689;50.954;7.116;2023-07-31T14:16:47;5.73;;;3.17;;
5333;SDS011;2689;50.954;7.116;2023-07-31T14:19:15;3.87;;;2.47;;
5333;SDS011;2689;50.954;7.116;2023-07-31T14:21:42;3.97;;;2.60;;
5333;SDS011;2689;50.954;7.116;2023-07-31T14:24:08;3.10;;;2.27;;
5333;SDS011;2689;50.954;7.116;2023-07-31T14:26:35;3.27;;;2.03;;
5333;SDS011;2689;50.954;7.116;2023-07-31T14:29:04;3.40;;;2.33;;
5333;SDS011;2689;50.954;7.116;2023-07-31T14:31:31;4.97;;;3.03;;
5333;SDS011;2689;50.954;7.116;2023-07-31T14:33:58;4.20;;;1.90;;
5333;SDS011;2689;50.954;7.116;2023-07-31T14:36:26;3.63;;;2.10;;
5333;SDS011;2689;50.954;7.116;2023-07-31T14:38:53;4.40;;;2.20;;
5333;SDS011;2689;50.954;7.116;2023-07-31T14:41:19;5.20;;;1.80;;
5333;SDS011;2689;50.954;7.116;2023-07-31T14:43:46;2.60;;;2.10;;
5333;SDS011;2689;50.954;7.116;2023-07-31T14:46:13;4.03;;;2.20;;
5333;SDS011;2689;50.954;7.116;2023-07-31T14:48:42;6.70;;;3.33;;
5333;SDS011;2689;50.954;7.116;2023-07-31T14:51:08;3.30;;;2.60;;
5333;SDS011;2689;50.954;7.116;2023-07-31T14:53:37;3.83;;;2.23;;
5333;SDS011;2689;50.954;7.116;2023-07-31T14:56:07;3.40;;;2.40;;
5333;SDS011;2689;50.954;7.116;2023-07-31T14:58:34;4.10;;;2.70;;
5333;SDS011;2689;50.954;7.116;2023-07-31T15:01:00;4.30;;;2.60;;
5333;SDS011;2689;50.954;7.116;2023-07-31T15:03:28;4.30;;;2.43;;
5333;SDS011;2689;50.954;7.116;2023-07-31T15:05:55;4.13;;;2.23;;
5333;SDS011;2689;50.954;7.116;2023-07-31T15:08:22;3.80;;;2.77;;
5333;SDS011;2689;50.954;7.116;2023-07-31T15:10:50;4.70;;;2.47;;
5333;SDS011;2689;50.954;7.116;2023-07-31T15:13:22;4.23;;;2.23;;
5333;SDS011;2689;50.954;7.116;2023-07-31T15:15:49;4.70;;;2.20;;
5333;SDS011;2689;50.954;7.116;2023-07-31T15:18:16;5.27;;;3.07;;
5333;SDS011;2689;50.954;7.116;2023-07-31T15:20:42;3.50;;;2.40;;
5333;SDS011;2689;50.954;7.116;2023-07-31T15:23:09;3.73;;;2.57;;